Startpagina
METAR-TAF:

METAR-TAF

Vliegvelden :

Belgrado, Servië

Luchthaven Belgrado Nikola Tesla

breedte: 44-49N, lengte: 020-17E, hoogte: 96 m

Actueel weer

Dit bericht is 20 minuten geleden gemaakt, om 15:00 UTC
Wind 8 kt uit het westnoordwesten
Temperatuur 14°C
Vochtigheid 82%
Druk 1019 hPa
Zicht 10 km of meer
Gebroken wolken op 4600 ft

METAR: LYBE 221500Z 29008KT 9999 BKN046 14/11 Q1019 NOSIG

Tijdstip: 17:20 (15:20 UTC)

Verwachting

Dit bericht is 4 uur en het 20 minuten geleden gemaakt, om 11:00 UTC
Verwachting geldig van 22 om 12 UTC tot 23 om 12 UTC
Wind 15 kt uit het westnoordwesten
Zicht 10 km of meer
Verspreide wolken op 2000 ft
Gebroken wolken op 3300 ft
Wijzigt naar
van 22 om 17 UTC tot 22 om 19 UTC
Wind 5 kt uit het westen
Tijdelijke
van 22 om 22 UTC tot 23 om 03 UTC
Zicht: 5000 m
nevel

TAF: LYBE 221100Z 2212/2312 30015KT 9999 SCT020 BKN033 TX18/2312Z TN10/2305Z BECMG 2217/2219 26005KT TEMPO 2222/2303 5000 BR

Waarnemingen en weersverwachtingen van meer dan 4000 vliegvelden (METAR en TAF).

De beschikbare stations zijn de gele en rode punten op de kaart.

Ga met uw muis naar het station om de naam te zien.

Klik dan om waarnemingen en weersverwachtingen te zien.

kaart wijzigen: klik op de groene knoppen met een zwart kruis om in te zoomen, op de groene knop met een streepje om uit te zoomen of op de groene pijlen voor aangrenzende kaarten.


METAR-TAF: